Accueil
METAR-TAF:

METAR-TAF

Aéroports :

Memmingen, Allemagne

latitude: 47-59-33N, longitude: 10-14-37E, altitude: 633 m

Observation

Le bulletin a été fait il y a 2 heures et 39 minutes, à 19:50 UTC
Vent 5 kt de nord/nord-est
Température 13°C
Humidité 44%
Pression 1027 hPa
Visibilité 10 km ou plus
pas de nuages en-dessous de 1500 mètres et pas de cumulonimbus.

METAR: EDJA 191950Z 03005KT CAVOK 13/01 Q1027

Heure: 00:29 (22:29 UTC)

Prévision

Le bulletin a été fait il y a 5 heures et 29 minutes, à 17:00 UTC
Prévision valable du 19 à 18 UTC au 20 à 03 UTC
Vent 5 kt de est/nord-est
Visibilité 10 km ou plus
pas de nuages en-dessous de 1500 mètres et pas de cumulonimbus.

TAF: EDJA 191700Z 1918/2003 06005KT CAVOK

Observations et prévisions météorologiques de plus de 4000 aéroports (messages METAR et TAF).

Les stations disponibles sont représentées par des disques jaunes et rouges sur la carte.

Passer la souris dessus pour voir le nom de la station.

Cliquer dessus pour voir les observations et prévisions météorologiques.

Pour changer de carte: cliquez sur les boutons verts avec une croix noire pour zoomer, sur le bouton vert avec un tiret pour effectuer un zoom arrière, ou sur les flèches vertes pour les cartes adjacentes.


METAR-TAF: